Time,TemperatureF,DewpointF,PressureIn,WindDirection,WindDirectionDegrees,WindSpeedMPH,WindSpeedGustMPH,Humidity,HourlyPrecipIn,Conditions,Clouds,dailyrainin,SoftwareType,DateUTC
2013-07-11 00:01:00,71.4,71.0,29.76,West,279,2.0,10.0,97,0.00,,,0.00,weatherlink.com 1.10,2013-07-11 04:01:00,
2013-07-11 00:17:00,71.3,70.0,29.75,SSW,196,5.0,8.0,97,0.00,,,0.00,weatherlink.com 1.10,2013-07-11 04:17:00,
2013-07-11 00:33:00,71.9,70.0,29.74,WSW,244,3.0,11.0,95,0.00,,,0.00,weatherlink.com 1.10,2013-07-11 04:33:00,
2013-07-11 00:50:00,71.8,71.0,29.75,West,259,3.0,7.0,96,0.00,,,0.00,weatherlink.com 1.10,2013-07-11 04:50:00,
2013-07-11 01:07:00,71.9,70.0,29.75,WNW,282,3.0,8.0,95,0.00,,,0.00,weatherlink.com 1.10,2013-07-11 05:07:00,
2013-07-11 01:23:00,71.6,70.0,29.74,SSW,211,6.0,9.0,96,0.00,,,0.00,weatherlink.com 1.10,2013-07-11 05:23:00,
2013-07-11 01:39:00,72.1,71.0,29.74,NW,317,1.0,10.0,95,0.00,,,0.00,weatherlink.com 1.10,2013-07-11 05:39:00,
2013-07-11 01:55:00,72.2,70.0,29.74,WSW,249,3.0,7.0,94,0.00,,,0.00,weatherlink.com 1.10,2013-07-11 05:55:00,
2013-07-11 02:12:00,72.8,70.0,29.73,WNW,298,5.0,10.0,92,0.00,,,0.00,weatherlink.com 1.10,2013-07-11 06:12:00,
2013-07-11 02:28:00,73.1,70.0,29.73,WNW,292,0.0,10.0,91,0.00,,,0.00,weatherlink.com 1.10,2013-07-11 06:28:00,
2013-07-11 02:44:00,72.9,70.0,29.73,SSW,213,5.0,9.0,91,0.00,,,0.00,weatherlink.com 1.10,2013-07-11 06:44:00,
2013-07-11 03:00:00,72.6,70.0,29.74,SW,216,5.0,16.0,93,0.00,,,0.00,weatherlink.com 1.10,2013-07-11 07:00:00,
2013-07-11 03:17:00,73.4,71.0,29.74,SSW,206,10.0,11.0,91,0.00,,,0.00,weatherlink.com 1.10,2013-07-11 07:17:00,
2013-07-11 03:33:00,72.3,71.0,29.75,SW,232,3.0,8.0,95,0.00,,,0.00,weatherlink.com 1.10,2013-07-11 07:33:00,
2013-07-11 03:49:00,71.4,71.0,29.75,West,260,2.0,8.0,97,0.00,,,0.00,weatherlink.com 1.10,2013-07-11 07:49:00,
2013-07-11 04:05:00,71.8,71.0,29.75,WNW,282,3.0,12.0,96,0.00,,,0.00,weatherlink.com 1.10,2013-07-11 08:05:00,
2013-07-11 04:22:00,72.4,70.0,29.75,SW,231,4.0,8.0,92,0.00,,,0.00,weatherlink.com 1.10,2013-07-11 08:22:00,
2013-07-11 04:38:00,72.6,70.0,29.75,WSW,258,2.0,7.0,91,0.00,,,0.00,weatherlink.com 1.10,2013-07-11 08:38:00,
2013-07-11 04:54:00,72.7,70.0,29.76,WSW,251,2.0,9.0,90,0.00,,,0.00,weatherlink.com 1.10,2013-07-11 08:54:00,
2013-07-11 05:10:00,72.8,69.0,29.76,West,263,1.0,9.0,89,0.00,,,0.00,weatherlink.com 1.10,2013-07-11 09:10:00,
2013-07-11 05:26:00,72.8,69.0,29.77,SW,220,8.0,9.0,88,0.00,,,0.00,weatherlink.com 1.10,2013-07-11 09:26:00,
2013-07-11 05:43:00,72.5,70.0,29.77,SW,233,5.0,11.0,92,0.00,,,0.00,weatherlink.com 1.10,2013-07-11 09:43:00,
2013-07-11 05:59:00,72.4,70.0,29.76,WNW,285,2.0,5.0,91,0.00,,,0.00,weatherlink.com 1.10,2013-07-11 09:59:00,
2013-07-11 06:15:00,72.1,70.0,29.77,WSW,246,3.0,11.0,92,0.00,,,0.00,weatherlink.com 1.10,2013-07-11 10:15:00,
2013-07-11 06:31:00,72.1,70.0,29.77,SW,220,5.0,9.0,92,0.00,,,0.00,weatherlink.com 1.10,2013-07-11 10:31:00,
2013-07-11 06:47:00,71.9,69.0,29.78,SW,221,4.0,10.0,92,0.00,,,0.00,weatherlink.com 1.10,2013-07-11 10:47:00,
2013-07-11 07:04:00,72.0,69.0,29.78,WSW,237,11.0,12.0,91,0.00,,,0.00,weatherlink.com 1.10,2013-07-11 11:04:00,
2013-07-11 07:20:00,71.5,69.0,29.79,WSW,245,6.0,13.0,92,0.00,,,0.00,weatherlink.com 1.10,2013-07-11 11:20:00,
2013-07-11 07:36:00,71.5,69.0,29.78,SW,227,11.0,11.0,91,0.00,,,0.00,weatherlink.com 1.10,2013-07-11 11:36:00,
2013-07-11 07:52:00,71.5,69.0,29.78,SSW,210,5.0,11.0,91,0.00,,,0.00,weatherlink.com 1.10,2013-07-11 11:52:00,
2013-07-11 08:09:00,71.4,68.0,29.79,WNW,301,2.0,15.0,90,0.00,,,0.00,weatherlink.com 1.10,2013-07-11 12:09:00,
2013-07-11 08:25:00,71.2,68.0,29.80,WSW,243,5.0,12.0,90,0.00,,,0.00,weatherlink.com 1.10,2013-07-11 12:25:00,
2013-07-11 08:41:00,70.9,68.0,29.79,WSW,242,3.0,12.0,90,0.00,,,0.00,weatherlink.com 1.10,2013-07-11 12:41:00,
2013-07-11 08:57:00,70.8,68.0,29.80,WSW,242,5.0,11.0,92,0.00,,,0.00,weatherlink.com 1.10,2013-07-11 12:57:00,
2013-07-11 09:14:00,70.8,68.0,29.80,WSW,254,7.0,8.0,92,0.00,,,0.00,weatherlink.com 1.10,2013-07-11 13:14:00,
2013-07-11 09:30:00,70.9,68.0,29.80,WNW,287,2.0,8.0,91,0.00,,,0.00,weatherlink.com 1.10,2013-07-11 13:30:00,
2013-07-11 10:19:00,72.5,69.0,29.80,WSW,252,5.0,7.0,89,0.00,,,0.00,weatherlink.com 1.10,2013-07-11 14:19:00,
2013-07-11 10:51:00,73.4,70.0,29.81,SW,232,7.0,9.0,88,0.00,,,0.00,weatherlink.com 1.10,2013-07-11 14:51:00,
2013-07-11 11:07:00,74.2,69.0,29.82,West,267,1.0,8.0,85,0.00,,,0.00,weatherlink.com 1.10,2013-07-11 15:07:00,
2013-07-11 11:24:00,74.1,69.0,29.82,WSW,250,3.0,8.0,85,0.00,,,0.00,weatherlink.com 1.10,2013-07-11 15:24:00,
2013-07-11 11:40:00,74.9,69.0,29.81,NNE,12,4.0,6.0,83,0.00,,,0.00,weatherlink.com 1.10,2013-07-11 15:40:00,
2013-07-11 12:13:00,75.7,69.0,29.81,WSW,245,4.0,8.0,80,0.00,,,0.00,weatherlink.com 1.10,2013-07-11 16:13:00,
2013-07-11 12:29:00,76.2,69.0,29.81,WSW,246,3.0,7.0,79,0.00,,,0.00,weatherlink.com 1.10,2013-07-11 16:29:00,
2013-07-11 12:45:00,76.6,69.0,29.81,North,358,4.0,9.0,78,0.00,,,0.00,weatherlink.com 1.10,2013-07-11 16:45:00,
2013-07-11 13:01:00,77.5,69.0,29.80,SSW,211,5.0,6.0,76,0.00,,,0.00,weatherlink.com 1.10,2013-07-11 17:01:00,
2013-07-11 14:07:00,74.6,68.0,29.82,NNW,348,1.0,6.0,80,0.00,,,0.00,weatherlink.com 1.10,2013-07-11 18:07:00,
2013-07-11 14:40:00,76.3,70.0,29.82,NNE,17,4.0,5.0,81,0.00,,,0.00,weatherlink.com 1.10,2013-07-11 18:40:00,
2013-07-11 14:56:00,76.6,68.0,29.82,NNW,343,3.0,6.0,76,0.00,,,0.00,weatherlink.com 1.10,2013-07-11 18:56:00,
2013-07-11 15:45:00,76.2,66.0,29.82,NNE,19,3.0,9.0,70,0.00,,,0.00,weatherlink.com 1.10,2013-07-11 19:45:00,
2013-07-11 16:01:00,76.1,67.0,29.83,NNW,347,1.0,6.0,73,0.00,,,0.00,weatherlink.com 1.10,2013-07-11 20:01:00,
2013-07-11 16:34:00,74.8,66.0,29.83,West,265,3.0,6.0,73,0.00,,,0.00,weatherlink.com 1.10,2013-07-11 20:34:00,
2013-07-11 16:50:00,74.9,66.0,29.84,North,360,4.0,7.0,73,0.00,,,0.00,weatherlink.com 1.10,2013-07-11 20:50:00,
2013-07-11 17:06:00,75.5,63.0,29.83,North,351,5.0,8.0,66,0.00,,,0.00,weatherlink.com 1.10,2013-07-11 21:06:00,
2013-07-11 17:22:00,75.5,65.0,29.84,NW,304,0.0,4.0,69,0.00,,,0.00,weatherlink.com 1.10,2013-07-11 21:22:00,
2013-07-11 17:55:00,75.9,65.0,29.84,NW,308,1.0,3.0,70,0.00,,,0.00,weatherlink.com 1.10,2013-07-11 21:55:00,
2013-07-11 18:11:00,76.4,65.0,29.85,NW,320,2.0,8.0,67,0.00,,,0.00,weatherlink.com 1.10,2013-07-11 22:11:00,
2013-07-11 18:44:00,76.1,64.0,29.86,North,360,1.0,4.0,67,0.00,,,0.00,weatherlink.com 1.10,2013-07-11 22:44:00,
2013-07-11 19:00:00,77.2,64.0,29.86,WNW,301,0.0,3.0,64,0.00,,,0.00,weatherlink.com 1.10,2013-07-11 23:00:00,
2013-07-11 19:16:00,77.4,65.0,29.87,NW,315,2.0,3.0,65,0.00,,,0.00,weatherlink.com 1.10,2013-07-11 23:16:00,
2013-07-11 19:33:00,77.5,65.0,29.88,North,5,3.0,5.0,65,0.00,,,0.00,weatherlink.com 1.10,2013-07-11 23:33:00,
2013-07-11 20:05:00,74.0,63.0,29.89,NNE,25,3.0,6.0,69,0.00,,,0.00,weatherlink.com 1.10,2013-07-12 00:05:00,
2013-07-11 20:22:00,72.2,63.0,29.90,NW,317,0.0,4.0,72,0.00,,,0.00,weatherlink.com 1.10,2013-07-12 00:22:00,
2013-07-11 20:38:00,70.9,63.0,29.90,NNW,330,1.0,5.0,75,0.00,,,0.00,weatherlink.com 1.10,2013-07-12 00:38:00,
2013-07-11 20:54:00,69.8,62.0,29.91,WNW,287,4.0,4.0,75,0.00,,,0.00,weatherlink.com 1.10,2013-07-12 00:54:00,
2013-07-11 21:10:00,69.4,61.0,29.92,NW,315,1.0,3.0,75,0.00,,,0.00,weatherlink.com 1.10,2013-07-12 01:10:00,
2013-07-11 21:27:00,68.7,62.0,29.92,NNW,338,0.0,3.0,78,0.00,,,0.00,weatherlink.com 1.10,2013-07-12 01:27:00,
2013-07-11 21:43:00,68.0,61.0,29.93,West,280,0.0,2.0,79,0.00,,,0.00,weatherlink.com 1.10,2013-07-12 01:43:00,
2013-07-11 21:59:00,67.2,61.0,29.93,WSW,237,1.0,2.0,81,0.00,,,0.00,weatherlink.com 1.10,2013-07-12 01:59:00,
2013-07-11 22:15:00,66.4,61.0,29.94,WSW,255,1.0,1.0,84,0.00,,,0.00,weatherlink.com 1.10,2013-07-12 02:15:00,
2013-07-11 22:32:00,65.7,61.0,29.95,SSE,167,1.0,2.0,84,0.00,,,0.00,weatherlink.com 1.10,2013-07-12 02:32:00,
2013-07-11 23:04:00,64.0,60.0,29.95,West,272,1.0,2.0,88,0.00,,,0.00,weatherlink.com 1.10,2013-07-12 03:04:00,
2013-07-11 23:21:00,63.4,60.0,29.95,NW,305,0.0,3.0,89,0.00,,,0.00,weatherlink.com 1.10,2013-07-12 03:21:00,